Stations météo

Publicité
Lentran, Grande-Bretagne (99125): Température de l'air & dewpoint: 21.04.2018 01:00:00 - 27.04.2018 01:00:00 (BST)Lentran, Grande-Bretagne (99125): Quantités de précipitations: 21.04.2018 01:00:00 - 27.04.2018 01:00:00 (BST)
Date & Time tt [°C] td [°C] rr [mm]
27.04.2018 01:00:00 3,2 2,6 0,0
27.04.2018 00:00:00 4,3 3,4 0,2
26.04.2018 23:00:00 4,8 3,3 0,2
26.04.2018 22:00:00 5,2 3,1 0,0
26.04.2018 21:00:00 5,4 3,5 0,0
26.04.2018 20:00:00 5,7 3,3 0,2
26.04.2018 19:00:00 7,2 5,2 0,2
26.04.2018 18:00:00 7,5 4,4 0,0
26.04.2018 17:00:00 6,6 4,9 0,8
26.04.2018 16:00:00 8,4 5,2 0,2
26.04.2018 15:00:00 8,2 6,1 0,2
26.04.2018 14:00:00 7,7 5,4 0,6
26.04.2018 13:00:00 8,4 4,6 0,0
26.04.2018 12:00:00 8,5 4,7 0,0
26.04.2018 11:00:00 8,6 4,2 0,0
26.04.2018 10:00:00 9,4 4,7 0,0
26.04.2018 09:00:00 - - 0,0
26.04.2018 08:00:00 - - 0,0
26.04.2018 07:00:00 - - 0,0
26.04.2018 06:00:00 - - 0,0
26.04.2018 05:00:00 - - 0,0
26.04.2018 04:00:00 - - 0,0
26.04.2018 03:00:00 - - 0,2
26.04.2018 02:00:00 - - 0,6
26.04.2018 01:00:00 - - 0,2
26.04.2018 00:00:00 - - 0,0
25.04.2018 23:00:00 - - 0,0
25.04.2018 22:00:00 - - 0,2
25.04.2018 21:00:00 - - 0,0
25.04.2018 20:00:00 - - 0,0
25.04.2018 19:00:00 - - 0,2
25.04.2018 18:00:00 - - 0,0
25.04.2018 17:00:00 - - 0,0
25.04.2018 16:00:00 - - 0,0
25.04.2018 15:00:00 - - 0,0
25.04.2018 14:00:00 - - 0,2
25.04.2018 13:00:00 - - 0,2
25.04.2018 12:00:00 9,9 3,3 0,0
25.04.2018 11:00:00 9,6 4,0 0,0
25.04.2018 10:00:00 9,9 4,2 0,0
25.04.2018 09:00:00 9,2 4,3 0,0
25.04.2018 08:00:00 7,7 4,4 0,0
25.04.2018 07:00:00 5,4 3,2 0,0
25.04.2018 06:00:00 4,9 3,0 0,0
25.04.2018 05:00:00 4,9 2,3 0,0
25.04.2018 04:00:00 5,6 3,1 0,0
25.04.2018 03:00:00 5,4 2,5 0,0
25.04.2018 02:00:00 5,8 2,5 0,0
25.04.2018 01:00:00 4,7 1,9 0,0
25.04.2018 00:00:00 5,4 2,6 0,0
24.04.2018 23:00:00 4,7 2,5 0,0
24.04.2018 22:00:00 5,8 2,6 0,0
24.04.2018 21:00:00 7,1 3,4 0,0
24.04.2018 20:00:00 8,5 2,8 0,0
24.04.2018 19:00:00 9,9 2,7 0,0
24.04.2018 18:00:00 12,2 3,5 0,0
24.04.2018 17:00:00 10,7 1,6 0,0
24.04.2018 16:00:00 11,3 3,6 0,0
24.04.2018 15:00:00 12,4 2,7 0,0
24.04.2018 14:00:00 12,4 3,3 0,0
24.04.2018 13:00:00 11,1 4,7 0,0
24.04.2018 12:00:00 10,8 4,8 0,0
24.04.2018 11:00:00 8,9 3,2 0,0
24.04.2018 10:00:00 7,5 3,6 0,0
24.04.2018 09:00:00 7,0 4,3 0,0
24.04.2018 08:00:00 6,7 4,5 0,0
24.04.2018 07:00:00 5,5 3,7 0,0
24.04.2018 06:00:00 5,2 3,9 0,4
24.04.2018 05:00:00 4,9 3,4 0,4
24.04.2018 04:00:00 6,2 3,7 0,0
24.04.2018 03:00:00 6,3 3,9 0,0
24.04.2018 02:00:00 6,4 4,4 0,0
24.04.2018 01:00:00 6,8 3,8 0,0
24.04.2018 00:00:00 7,9 6,9 0,0
23.04.2018 23:00:00 6,9 6,9 0,4
23.04.2018 22:00:00 7,3 7,1 0,4
23.04.2018 21:00:00 7,4 6,9 0,0
23.04.2018 20:00:00 7,8 7,1 0,2
23.04.2018 19:00:00 8,1 6,9 0,0
23.04.2018 18:00:00 8,5 6,5 0,8
23.04.2018 17:00:00 9,8 4,4 0,0
23.04.2018 16:00:00 10,8 4,0 0,0
23.04.2018 15:00:00 10,8 4,2 0,0
23.04.2018 14:00:00 10,6 4,1 0,0
23.04.2018 13:00:00 10,5 4,8 0,0
23.04.2018 12:00:00 9,6 5,6 0,0
23.04.2018 11:00:00 10,0 5,6 0,0
23.04.2018 10:00:00 9,7 5,8 0,0
23.04.2018 09:00:00 7,6 6,2 0,0
23.04.2018 08:00:00 7,3 6,4 0,2
23.04.2018 07:00:00 7,8 6,2 0,2
23.04.2018 06:00:00 8,1 5,5 0,0
23.04.2018 05:00:00 7,7 5,8 0,0
23.04.2018 04:00:00 7,6 6,1 0,0
23.04.2018 03:00:00 7,5 5,9 0,2
23.04.2018 02:00:00 7,2 5,6 0,0
23.04.2018 01:00:00 7,2 5,1 0,0
23.04.2018 00:00:00 6,9 4,9 0,0
22.04.2018 23:00:00 7,3 5,4 0,0
22.04.2018 22:00:00 7,4 5,5 0,0
22.04.2018 21:00:00 7,8 5,0 0,0
22.04.2018 20:00:00 9,0 5,4 0,0
22.04.2018 19:00:00 9,3 4,4 0,0
22.04.2018 18:00:00 11,3 4,8 0,0
22.04.2018 17:00:00 10,9 4,4 0,0
22.04.2018 16:00:00 10,1 6,3 0,0
22.04.2018 15:00:00 9,9 6,8 0,4
22.04.2018 14:00:00 11,6 6,0 0,0
22.04.2018 13:00:00 10,8 6,1 0,0
22.04.2018 12:00:00 10,0 6,3 0,0
22.04.2018 11:00:00 10,6 6,7 0,2
22.04.2018 10:00:00 11,2 5,1 0,0
22.04.2018 09:00:00 10,8 3,7 0,0
22.04.2018 08:00:00 8,2 4,2 0,0
22.04.2018 07:00:00 5,2 2,3 0,0
22.04.2018 06:00:00 5,0 2,0 0,0
22.04.2018 05:00:00 5,8 1,9 0,0
22.04.2018 04:00:00 6,4 2,4 0,0
22.04.2018 03:00:00 6,7 3,0 0,0
22.04.2018 02:00:00 8,4 3,5 0,0
22.04.2018 01:00:00 10,1 4,3 0,0
22.04.2018 00:00:00 8,7 4,9 0,0
21.04.2018 23:00:00 9,0 4,9 0,0
21.04.2018 22:00:00 7,8 4,3 0,0
21.04.2018 21:00:00 10,1 5,2 0,0
21.04.2018 20:00:00 13,6 5,0 0,0
21.04.2018 19:00:00 14,5 4,9 0,0
21.04.2018 18:00:00 16,9 5,9 0,0
21.04.2018 17:00:00 16,2 4,9 0,0
21.04.2018 16:00:00 16,2 4,6 0,0
21.04.2018 15:00:00 15,7 4,8 0,0
21.04.2018 14:00:00 16,3 6,1 0,0
21.04.2018 13:00:00 13,8 5,0 0,0
21.04.2018 12:00:00 13,8 5,6 0,0
21.04.2018 11:00:00 12,5 4,9 0,0
21.04.2018 10:00:00 9,6 5,2 0,0
21.04.2018 09:00:00 8,8 5,3 0,0
21.04.2018 08:00:00 6,8 4,8 0,0
21.04.2018 07:00:00 4,6 3,9 0,0
21.04.2018 06:00:00 3,9 3,0 0,0
21.04.2018 05:00:00 3,8 2,6 0,0
21.04.2018 04:00:00 4,1 2,8 0,0
21.04.2018 03:00:00 3,7 2,1 0,0
21.04.2018 02:00:00 5,4 2,8 0,0
21.04.2018 01:00:00 5,6 2,8 0,0

tt = Température de l'air
td = dewpoint
rr = Quantités de précipitations

stations d'obs. à proximité